Time;durP1;ratioP1;P1;durP2;ratioP2;P2;SDS_P1;SDS_P2;PMS_P1;PMS_P2;Temp;Humidity;BMP_temperature;BMP_pressure;BME280_temperature;BME280_humidity;BME280_pressure;Samples;Min_cycle;Max_cycle;Signal;HPM_P1;HPM_P2
2021/07/24 00:01:09;;;;;;;;;21.00;21.00;;;;;;;;5003674;28;8838;-81
2021/07/24 00:03:37;;;;;;;;;22.25;20.00;;;;;;;;5009680;28;8884;-82
2021/07/24 00:06:04;;;;;;;;;20.50;20.50;;;;;;;;5004184;28;8872;-81
2021/07/24 00:08:32;;;;;;;;;21.50;21.00;;;;;;;;5010643;28;9647;-78
2021/07/24 00:11:03;;;;;;;;;21.75;20.00;;;;;;;;5005782;28;8893;-84
2021/07/24 00:13:30;;;;;;;;;23.25;20.00;;;;;;;;5007509;28;8985;-85
2021/07/24 00:15:57;;;;;;;;;22.25;19.50;;;;;;;;5006901;28;8865;-79
2021/07/24 00:18:26;;;;;;;;;21.25;21.00;;;;;;;;5006436;28;8883;-81
2021/07/24 00:20:53;;;;;;;;;20.25;20.25;;;;;;;;5006713;28;8891;-79
2021/07/24 00:23:20;;;;;;;;;25.50;24.00;;;;;;;;5005350;28;8856;-83
2021/07/24 00:25:47;;;;;;;;;15.80;15.80;;;;;;;;5006958;28;8878;-86
2021/07/24 00:28:14;;;;;;;;;19.75;17.25;;;;;;;;5006839;28;8890;-87
2021/07/24 00:30:43;;;;;;;;;23.50;23.50;;;;;;;;5009759;28;8839;-85
2021/07/24 00:33:10;;;;;;;;;22.25;20.75;;;;;;;;5005707;28;8896;-86
2021/07/24 00:35:39;;;;;;;;;19.75;19.00;;;;;;;;4998700;28;8995;-78
2021/07/24 00:38:07;;;;;;;;;22.00;22.00;;;;;;;;5007590;28;8870;-84
2021/07/24 00:40:37;;;;;;;;;22.50;22.50;;;;;;;;5005918;28;8902;-82
2021/07/24 00:43:06;;;;;;;;;21.75;21.50;;;;;;;;5008950;28;8892;-84
2021/07/24 00:45:42;;;;;;;;;21.25;21.25;;;;;;;;5008582;28;8881;-81
2021/07/24 00:48:12;;;;;;;;;17.50;17.25;;;;;;;;4995890;28;8897;-84
2021/07/24 00:50:41;;;;;;;;;25.00;22.25;;;;;;;;5003476;28;8852;-86
2021/07/24 00:53:12;;;;;;;;;24.25;21.75;;;;;;;;5005895;28;8945;-82
2021/07/24 00:55:40;;;;;;;;;24.75;21.75;;;;;;;;5011036;28;8844;-84
2021/07/24 00:58:24;;;;;;;;;22.00;19.50;;;;;;;;5005267;28;8921;-86
2021/07/24 01:00:51;;;;;;;;;23.75;22.75;;;;;;;;5007656;28;8977;-86
2021/07/24 01:03:18;;;;;;;;;25.00;22.25;;;;;;;;4999171;28;8854;-87
2021/07/24 01:05:50;;;;;;;;;23.00;23.00;;;;;;;;5007100;28;8944;-79
2021/07/24 01:08:17;;;;;;;;;22.50;19.50;;;;;;;;5002121;28;8906;-81
2021/07/24 01:10:45;;;;;;;;;18.75;18.75;;;;;;;;5005373;28;8893;-85
2021/07/24 01:13:16;;;;;;;;;21.00;20.40;;;;;;;;5003983;28;8876;-85
2021/07/24 01:15:45;;;;;;;;;24.80;19.80;;;;;;;;5000295;28;8875;-82
2021/07/24 01:18:12;;;;;;;;;18.00;16.80;;;;;;;;5006302;28;8874;-78
2021/07/24 01:20:40;;;;;;;;;21.75;19.75;;;;;;;;5004828;28;8874;-82
2021/07/24 01:23:09;;;;;;;;;22.20;22.20;;;;;;;;5004394;28;9020;-85
2021/07/24 01:25:43;;;;;;;;;24.20;21.00;;;;;;;;5006296;28;9124;-84
2021/07/24 01:28:10;;;;;;;;;16.50;16.50;;;;;;;;5010507;28;8860;-87
2021/07/24 01:30:38;;;;;;;;;22.75;21.00;;;;;;;;5016876;28;8793;-84
2021/07/24 01:33:05;;;;;;;;;19.20;19.00;;;;;;;;5024276;28;8884;-82
2021/07/24 01:35:33;;;;;;;;;19.20;19.20;;;;;;;;5022420;28;8872;-79
2021/07/24 01:38:00;;;;;;;;;19.80;16.40;;;;;;;;5023829;28;8977;-82
2021/07/24 01:40:28;;;;;;;;;20.50;20.50;;;;;;;;5025358;28;8877;-85
2021/07/24 01:42:58;;;;;;;;;19.50;19.25;;;;;;;;5025342;28;8863;-85
2021/07/24 01:45:26;;;;;;;;;20.75;20.75;;;;;;;;5024312;28;8894;-79
2021/07/24 01:47:53;;;;;;;;;21.20;19.00;;;;;;;;5025874;28;8865;-77
2021/07/24 01:53:07;;;;;;;;;19.50;19.25;;;;;;;;5022799;28;8853;-86
2021/07/24 01:55:39;;;;;;;;;19.20;17.40;;;;;;;;5022427;28;8987;-88
2021/07/24 01:58:07;;;;;;;;;26.25;24.75;;;;;;;;5017279;28;8869;-86
2021/07/24 02:00:35;;;;;;;;;21.75;18.75;;;;;;;;5023990;28;8833;-85
2021/07/24 02:03:09;;;;;;;;;20.50;20.25;;;;;;;;5024022;28;8892;-86
2021/07/24 02:05:41;;;;;;;;;21.75;21.75;;;;;;;;5025327;28;8888;-89
2021/07/24 02:08:10;;;;;;;;;21.50;20.00;;;;;;;;5023680;28;8853;-89
2021/07/24 02:10:40;;;;;;;;;22.50;21.00;;;;;;;;5023276;28;8907;-84
2021/07/24 02:13:07;;;;;;;;;20.00;18.75;;;;;;;;5023260;28;8899;-78
2021/07/24 02:15:35;;;;;;;;;22.25;22.25;;;;;;;;5005733;28;8880;-80
2021/07/24 02:18:03;;;;;;;;;22.00;19.75;;;;;;;;5024177;28;8894;-84
2021/07/24 02:20:31;;;;;;;;;13.40;13.20;;;;;;;;5023479;28;8869;-81
2021/07/24 02:22:59;;;;;;;;;21.00;19.60;;;;;;;;5024816;28;8998;-87
2021/07/24 02:25:26;;;;;;;;;17.20;16.80;;;;;;;;5023370;28;8895;-85
2021/07/24 02:27:55;;;;;;;;;19.80;19.80;;;;;;;;5023969;28;8888;-89
2021/07/24 02:30:22;;;;;;;;;23.00;21.80;;;;;;;;5021961;28;9623;-82
2021/07/24 02:33:06;;;;;;;;;18.80;18.80;;;;;;;;5102318;27;10256;-82
2021/07/24 02:35:34;;;;;;;;;19.80;18.00;;;;;;;;5086778;28;8893;-88
2021/07/24 02:38:01;;;;;;;;;19.20;19.20;;;;;;;;5084364;28;8859;-81
2021/07/24 02:40:29;;;;;;;;;18.00;17.40;;;;;;;;5086464;28;8896;-89
2021/07/24 02:42:56;;;;;;;;;18.40;17.20;;;;;;;;5090728;28;8859;-86
2021/07/24 02:45:23;;;;;;;;;23.80;21.20;;;;;;;;5082401;28;8884;-79
2021/07/24 02:47:50;;;;;;;;;22.80;22.80;;;;;;;;5084135;28;8866;-86
2021/07/24 02:50:19;;;;;;;;;24.80;21.60;;;;;;;;5087842;28;8983;-85
2021/07/24 02:52:46;;;;;;;;;21.80;21.80;;;;;;;;5080832;28;8858;-84
2021/07/24 02:55:14;;;;;;;;;22.60;22.60;;;;;;;;5082152;28;8892;-80
2021/07/24 02:57:41;;;;;;;;;18.60;18.60;;;;;;;;5082044;28;8839;-86
2021/07/24 03:00:10;;;;;;;;;21.00;21.00;;;;;;;;5080997;28;9646;-88
2021/07/24 03:02:37;;;;;;;;;21.00;18.40;;;;;;;;5038749;28;8887;-83
2021/07/24 03:05:05;;;;;;;;;21.00;21.00;;;;;;;;5050041;28;8877;-88
2021/07/24 03:07:33;;;;;;;;;20.25;19.25;;;;;;;;5040473;28;8915;-90
2021/07/24 03:10:01;;;;;;;;;24.50;20.75;;;;;;;;5046466;28;8996;-87
2021/07/24 03:12:28;;;;;;;;;20.75;20.75;;;;;;;;5046539;28;8986;-91
2021/07/24 03:14:56;;;;;;;;;21.50;20.75;;;;;;;;5045158;28;8885;-81
2021/07/24 03:17:24;;;;;;;;;19.00;18.25;;;;;;;;5045483;28;8913;-86
2021/07/24 03:19:51;;;;;;;;;22.00;20.00;;;;;;;;5047375;28;8873;-87
2021/07/24 03:22:18;;;;;;;;;21.75;21.50;;;;;;;;5051673;28;9002;-90
2021/07/24 03:24:47;;;;;;;;;20.75;19.50;;;;;;;;5044184;28;8864;-89
2021/07/24 03:27:18;;;;;;;;;20.25;18.75;;;;;;;;5040092;28;9038;-90
2021/07/24 03:29:45;;;;;;;;;19.75;18.50;;;;;;;;5045202;28;8884;-83
2021/07/24 03:32:12;;;;;;;;;21.50;21.00;;;;;;;;5040114;28;8833;-81
2021/07/24 03:34:39;;;;;;;;;15.75;15.75;;;;;;;;5039928;28;8888;-80
2021/07/24 03:37:07;;;;;;;;;22.75;22.75;;;;;;;;5046962;28;8900;-88
2021/07/24 03:39:34;;;;;;;;;19.50;19.50;;;;;;;;5043594;28;8993;-86
2021/07/24 03:42:03;;;;;;;;;21.25;20.00;;;;;;;;5046116;28;8984;-88
2021/07/24 03:44:30;;;;;;;;;21.00;20.25;;;;;;;;5022905;28;8883;-87
2021/07/24 03:46:58;;;;;;;;;13.00;13.00;;;;;;;;5026661;28;8864;-86
2021/07/24 03:49:25;;;;;;;;;23.00;23.00;;;;;;;;5035959;28;8839;-79
2021/07/24 03:51:52;;;;;;;;;27.75;22.75;;;;;;;;5031865;28;8886;-80
2021/07/24 03:54:19;;;;;;;;;14.75;14.75;;;;;;;;5020868;28;8880;-89
2021/07/24 03:56:47;;;;;;;;;22.00;20.25;;;;;;;;5025340;28;8898;-81
2021/07/24 03:59:15;;;;;;;;;21.25;20.25;;;;;;;;5032932;28;8862;-84
2021/07/24 04:01:44;;;;;;;;;22.25;19.50;;;;;;;;5025543;28;8809;-87
2021/07/24 04:04:14;;;;;;;;;22.25;20.75;;;;;;;;5031997;28;9592;-84
2021/07/24 04:06:42;;;;;;;;;21.75;19.50;;;;;;;;5030275;28;8848;-77
2021/07/24 04:09:09;;;;;;;;;16.75;16.75;;;;;;;;5028870;28;8865;-80
2021/07/24 04:11:36;;;;;;;;;19.25;19.25;;;;;;;;5030106;28;8948;-88
2021/07/24 04:14:05;;;;;;;;;23.25;21.75;;;;;;;;5026009;28;8987;-84
2021/07/24 04:16:34;;;;;;;;;20.00;18.50;;;;;;;;5027832;28;8926;-90
2021/07/24 04:19:02;;;;;;;;;19.75;19.75;;;;;;;;5026710;28;8879;-91
2021/07/24 04:21:30;;;;;;;;;20.00;18.50;;;;;;;;5032510;28;8874;-88
2021/07/24 04:23:57;;;;;;;;;22.75;22.75;;;;;;;;5025933;28;9642;-88
2021/07/24 04:26:25;;;;;;;;;20.00;20.00;;;;;;;;5025810;28;8860;-89
2021/07/24 04:28:52;;;;;;;;;16.25;16.25;;;;;;;;5025955;28;8883;-87
2021/07/24 04:31:19;;;;;;;;;21.75;21.75;;;;;;;;5028903;28;8963;-87
2021/07/24 04:33:48;;;;;;;;;20.75;19.25;;;;;;;;5027469;28;8857;-83
2021/07/24 04:36:16;;;;;;;;;23.50;19.75;;;;;;;;5027242;28;8907;-88
2021/07/24 04:38:43;;;;;;;;;22.50;21.25;;;;;;;;5026063;28;8864;-87
2021/07/24 04:41:18;;;;;;;;;20.75;20.50;;;;;;;;5026448;28;8864;-83
2021/07/24 04:43:45;;;;;;;;;15.50;15.50;;;;;;;;5022549;28;8868;-89
2021/07/24 04:46:13;;;;;;;;;16.75;14.25;;;;;;;;5026314;28;8855;-89
2021/07/24 04:48:40;;;;;;;;;15.50;14.25;;;;;;;;5028270;28;9037;-85
2021/07/24 04:51:09;;;;;;;;;15.75;14.25;;;;;;;;5026120;28;8889;-88
2021/07/24 04:53:37;;;;;;;;;15.75;15.75;;;;;;;;5031980;28;8864;-87
2021/07/24 04:56:05;;;;;;;;;10.00;10.00;;;;;;;;5030254;28;8876;-87
2021/07/24 04:58:32;;;;;;;;;11.25;11.25;;;;;;;;5025357;28;8891;-91
2021/07/24 05:00:59;;;;;;;;;12.25;11.00;;;;;;;;5015325;28;8867;-92
2021/07/24 05:03:27;;;;;;;;;15.80;14.20;;;;;;;;5025832;28;8894;-89
2021/07/24 05:05:54;;;;;;;;;17.00;13.20;;;;;;;;5031505;28;9627;-84
2021/07/24 05:08:23;;;;;;;;;13.00;13.00;;;;;;;;5026124;28;9032;-91
2021/07/24 05:10:51;;;;;;;;;16.00;11.80;;;;;;;;5009129;28;8857;-91
2021/07/24 05:13:18;;;;;;;;;14.20;14.20;;;;;;;;5033701;28;8881;-88
2021/07/24 05:15:45;;;;;;;;;14.20;11.60;;;;;;;;5011103;28;8898;-80
2021/07/24 05:18:13;;;;;;;;;12.60;12.60;;;;;;;;5023075;28;8975;-88
2021/07/24 05:20:40;;;;;;;;;15.00;13.60;;;;;;;;5026372;28;8879;-86
2021/07/24 05:23:08;;;;;;;;;14.20;14.00;;;;;;;;5030327;28;8860;-89
2021/07/24 05:25:36;;;;;;;;;12.80;11.00;;;;;;;;5033401;28;8852;-85
2021/07/24 05:28:04;;;;;;;;;12.60;12.00;;;;;;;;5035221;28;8953;-83
2021/07/24 05:30:32;;;;;;;;;11.40;11.40;;;;;;;;5026688;28;9575;-84
2021/07/24 05:32:59;;;;;;;;;10.00;10.00;;;;;;;;5030713;28;8870;-82
2021/07/24 05:35:27;;;;;;;;;13.40;10.40;;;;;;;;5032689;28;8872;-86
2021/07/24 05:37:54;;;;;;;;;7.80;7.80;;;;;;;;5014729;28;8868;-82
2021/07/24 05:40:21;;;;;;;;;13.00;13.00;;;;;;;;5038072;28;8882;-83
2021/07/24 05:42:50;;;;;;;;;9.00;9.00;;;;;;;;5024493;28;8978;-81
2021/07/24 05:45:18;;;;;;;;;8.00;8.00;;;;;;;;5025630;28;8861;-81
2021/07/24 05:47:45;;;;;;;;;6.00;6.00;;;;;;;;5026576;28;8868;-80
2021/07/24 05:50:12;;;;;;;;;8.60;8.20;;;;;;;;5022614;28;8893;-80
2021/07/24 05:52:40;;;;;;;;;4.00;4.00;;;;;;;;5024778;28;8885;-83
2021/07/24 05:55:08;;;;;;;;;8.00;8.00;;;;;;;;5021045;28;9003;-79
2021/07/24 05:57:38;;;;;;;;;8.40;8.40;;;;;;;;5020135;28;8978;-79
2021/07/24 06:00:08;;;;;;;;;9.40;6.40;;;;;;;;5021726;28;8876;-78
2021/07/24 06:02:36;;;;;;;;;8.20;8.20;;;;;;;;4987826;28;8873;-80
2021/07/24 06:05:03;;;;;;;;;7.40;5.00;;;;;;;;5023368;28;8884;-79
2021/07/24 06:07:32;;;;;;;;;6.00;6.00;;;;;;;;5017835;28;8889;-79
2021/07/24 06:10:00;;;;;;;;;6.40;6.40;;;;;;;;5020879;28;8975;-78
2021/07/24 06:12:27;;;;;;;;;6.40;6.40;;;;;;;;5020798;28;8911;-78
2021/07/24 06:14:54;;;;;;;;;5.00;5.00;;;;;;;;5021966;28;8861;-77
2021/07/24 06:17:23;;;;;;;;;6.40;6.00;;;;;;;;5021999;28;8867;-79
2021/07/24 06:19:50;;;;;;;;;8.80;7.00;;;;;;;;5021899;28;8900;-78
2021/07/24 06:22:18;;;;;;;;;8.00;8.00;;;;;;;;5024483;28;8970;-79
2021/07/24 06:24:45;;;;;;;;;5.00;5.00;;;;;;;;5024416;28;8905;-81
2021/07/24 06:27:12;;;;;;;;;8.00;8.00;;;;;;;;5020417;28;9019;-77
2021/07/24 06:29:40;;;;;;;;;5.00;5.00;;;;;;;;5017574;28;8884;-76
2021/07/24 06:32:10;;;;;;;;;6.00;6.00;;;;;;;;5031604;28;8829;-76
2021/07/24 06:34:39;;;;;;;;;4.40;4.40;;;;;;;;5037374;28;8876;-78
2021/07/24 06:37:08;;;;;;;;;6.00;4.80;;;;;;;;5035022;28;8948;-76
2021/07/24 06:39:35;;;;;;;;;6.60;6.60;;;;;;;;5029642;28;8895;-78
2021/07/24 06:42:03;;;;;;;;;5.80;5.80;;;;;;;;5029171;28;8861;-76
2021/07/24 06:44:30;;;;;;;;;6.00;6.00;;;;;;;;5023978;28;8903;-76
2021/07/24 06:46:57;;;;;;;;;5.80;5.80;;;;;;;;5021602;28;8996;-75
2021/07/24 06:49:24;;;;;;;;;6.20;6.20;;;;;;;;5020958;28;9656;-77
2021/07/24 06:51:53;;;;;;;;;6.80;6.80;;;;;;;;5019271;28;8860;-80
2021/07/24 06:54:20;;;;;;;;;5.40;5.40;;;;;;;;5023781;28;8869;-78
2021/07/24 06:56:48;;;;;;;;;6.20;6.20;;;;;;;;5022475;28;8861;-76
2021/07/24 06:59:15;;;;;;;;;7.00;6.00;;;;;;;;5020488;28;8877;-76
2021/07/24 07:01:42;;;;;;;;;10.60;7.40;;;;;;;;5021586;28;8844;-76
2021/07/24 07:04:10;;;;;;;;;6.00;6.00;;;;;;;;5022005;28;8894;-78
2021/07/24 07:06:41;;;;;;;;;7.20;7.20;;;;;;;;5004932;28;8910;-78
2021/07/24 07:09:10;;;;;;;;;6.40;5.20;;;;;;;;5022430;28;8907;-75
2021/07/24 07:11:37;;;;;;;;;7.20;6.40;;;;;;;;5021002;28;9635;-77
2021/07/24 07:14:05;;;;;;;;;5.80;5.00;;;;;;;;5005099;28;8892;-72
2021/07/24 07:16:32;;;;;;;;;5.60;5.40;;;;;;;;5021582;28;8882;-75
2021/07/24 07:19:00;;;;;;;;;5.40;5.40;;;;;;;;5020574;28;8867;-74
2021/07/24 07:21:27;;;;;;;;;4.80;4.40;;;;;;;;5024997;28;8886;-74
2021/07/24 07:23:55;;;;;;;;;5.00;5.00;;;;;;;;5024858;28;8892;-74
2021/07/24 07:26:29;;;;;;;;;7.80;6.00;;;;;;;;5008458;28;8881;-77
2021/07/24 07:29:01;;;;;;;;;5.20;5.00;;;;;;;;5025988;28;9021;-76
2021/07/24 07:31:29;;;;;;;;;5.80;5.80;;;;;;;;5025306;28;8911;-76
2021/07/24 07:33:56;;;;;;;;;8.00;6.60;;;;;;;;5025549;28;8877;-77
2021/07/24 07:36:23;;;;;;;;;4.00;4.00;;;;;;;;5024845;28;8885;-74
2021/07/24 07:38:51;;;;;;;;;7.60;6.20;;;;;;;;5023817;28;8872;-75
2021/07/24 07:41:18;;;;;;;;;6.00;6.00;;;;;;;;5023687;28;8865;-77
2021/07/24 07:43:47;;;;;;;;;5.00;5.00;;;;;;;;5006902;28;8868;-75
2021/07/24 07:46:15;;;;;;;;;5.40;5.40;;;;;;;;5026062;28;9631;-77
2021/07/24 07:48:42;;;;;;;;;5.00;5.00;;;;;;;;5022819;28;8849;-75
2021/07/24 07:51:10;;;;;;;;;5.20;5.00;;;;;;;;5024838;28;8877;-78
2021/07/24 07:53:38;;;;;;;;;4.20;4.20;;;;;;;;5024548;28;8871;-80
2021/07/24 07:56:09;;;;;;;;;6.00;6.00;;;;;;;;5021705;28;8880;-78
2021/07/24 07:58:37;;;;;;;;;4.80;4.80;;;;;;;;5023259;28;8895;-74
2021/07/24 08:01:11;;;;;;;;;4.80;4.80;;;;;;;;5025025;28;9571;-76
2021/07/24 08:03:39;;;;;;;;;7.40;5.20;;;;;;;;5025639;28;8854;-76
2021/07/24 08:06:07;;;;;;;;;5.00;5.00;;;;;;;;5025554;28;9579;-73
2021/07/24 08:08:34;;;;;;;;;5.60;5.60;;;;;;;;5022661;28;8864;-82
2021/07/24 08:11:02;;;;;;;;;7.20;5.60;;;;;;;;5027777;28;8857;-74
2021/07/24 08:13:30;;;;;;;;;4.20;4.20;;;;;;;;5026567;28;8943;-73
2021/07/24 08:15:57;;;;;;;;;6.80;3.80;;;;;;;;5024871;28;8860;-81
2021/07/24 08:18:27;;;;;;;;;5.40;4.40;;;;;;;;5006179;28;8892;-78
2021/07/24 08:20:54;;;;;;;;;3.80;3.80;;;;;;;;5010009;28;8868;-72
2021/07/24 08:23:22;;;;;;;;;3.60;3.60;;;;;;;;5022589;28;8935;-77
2021/07/24 08:25:50;;;;;;;;;4.80;4.80;;;;;;;;5023065;28;8872;-72
2021/07/24 08:28:17;;;;;;;;;5.80;4.20;;;;;;;;5021598;28;8880;-77
2021/07/24 08:30:46;;;;;;;;;5.20;4.00;;;;;;;;5024461;28;8835;-76
2021/07/24 08:33:14;;;;;;;;;5.40;4.20;;;;;;;;5024000;28;8892;-75
2021/07/24 08:35:42;;;;;;;;;8.00;6.00;;;;;;;;5023705;28;8869;-75
2021/07/24 08:38:09;;;;;;;;;6.60;6.60;;;;;;;;5030527;28;8891;-71
2021/07/24 08:40:37;;;;;;;;;4.20;4.20;;;;;;;;5028435;28;8886;-73
2021/07/24 08:43:05;;;;;;;;;5.40;3.80;;;;;;;;5032749;28;8873;-75
2021/07/24 08:45:33;;;;;;;;;9.80;8.60;;;;;;;;5028013;28;9518;-73
2021/07/24 08:48:01;;;;;;;;;6.40;5.00;;;;;;;;5024586;28;8888;-75
2021/07/24 08:50:28;;;;;;;;;3.00;3.00;;;;;;;;5008584;28;8908;-74
2021/07/24 08:52:58;;;;;;;;;3.60;3.40;;;;;;;;5005682;28;8942;-75
2021/07/24 08:55:25;;;;;;;;;5.80;5.60;;;;;;;;5028050;28;8902;-76
2021/07/24 08:57:53;;;;;;;;;5.80;5.80;;;;;;;;5005987;28;9467;-74
2021/07/24 09:00:22;;;;;;;;;4.00;3.00;;;;;;;;5027867;28;8912;-76
2021/07/24 09:02:51;;;;;;;;;5.20;4.40;;;;;;;;5023439;28;8899;-77
2021/07/24 09:05:19;;;;;;;;;8.00;6.00;;;;;;;;5026079;28;8866;-78
2021/07/24 09:07:47;;;;;;;;;5.80;4.80;;;;;;;;5007078;28;8877;-76
2021/07/24 09:10:17;;;;;;;;;6.40;5.60;;;;;;;;5026777;28;9009;-74
2021/07/24 09:12:45;;;;;;;;;7.20;4.40;;;;;;;;5035659;28;8882;-75
2021/07/24 09:15:14;;;;;;;;;4.40;4.40;;;;;;;;5027345;28;8902;-74
2021/07/24 09:17:42;;;;;;;;;5.80;4.80;;;;;;;;5024815;28;8872;-73
2021/07/24 09:20:10;;;;;;;;;5.00;5.00;;;;;;;;5029131;28;8862;-74
2021/07/24 09:22:39;;;;;;;;;4.00;4.00;;;;;;;;5032361;28;8861;-76
2021/07/24 09:25:09;;;;;;;;;6.00;6.00;;;;;;;;5018934;28;8893;-80
2021/07/24 09:27:38;;;;;;;;;4.80;4.80;;;;;;;;5033966;28;8952;-77
2021/07/24 09:30:07;;;;;;;;;3.20;3.20;;;;;;;;5014129;28;8850;-77
2021/07/24 09:32:35;;;;;;;;;3.60;3.60;;;;;;;;5039958;28;8866;-77
2021/07/24 09:35:03;;;;;;;;;3.80;3.80;;;;;;;;5027642;28;8872;-80
2021/07/24 09:37:32;;;;;;;;;3.00;2.80;;;;;;;;5020116;28;8896;-75
2021/07/24 09:40:21;;;;;;;;;3.00;3.00;;;;;;;;5005584;28;8864;-75
2021/07/24 09:42:50;;;;;;;;;4.20;4.20;;;;;;;;5004966;28;8877;-75
2021/07/24 09:45:17;;;;;;;;;4.00;4.00;;;;;;;;5023732;28;9629;-76
2021/07/24 09:47:45;;;;;;;;;4.20;4.20;;;;;;;;5024063;28;9756;-76
2021/07/24 09:50:14;;;;;;;;;6.40;4.60;;;;;;;;5024517;28;8868;-77
2021/07/24 09:52:50;;;;;;;;;6.00;4.00;;;;;;;;5015663;28;8907;-77
2021/07/24 09:55:19;;;;;;;;;3.60;3.60;;;;;;;;5027614;28;8873;-76
2021/07/24 09:57:47;;;;;;;;;5.20;5.20;;;;;;;;5027244;28;8868;-78
2021/07/24 10:00:23;;;;;;;;;4.80;4.80;;;;;;;;5023285;28;9012;-76
2021/07/24 10:02:58;;;;;;;;;3.00;3.00;;;;;;;;5022893;28;8842;-77
2021/07/24 10:05:35;;;;;;;;;4.00;4.00;;;;;;;;5019983;28;8857;-77
2021/07/24 10:08:05;;;;;;;;;3.60;3.60;;;;;;;;5022760;28;8857;-75
2021/07/24 10:10:38;;;;;;;;;4.20;2.80;;;;;;;;5023562;28;8977;-76
2021/07/24 10:13:08;;;;;;;;;4.40;4.40;;;;;;;;5024835;28;8876;-76
2021/07/24 10:15:41;;;;;;;;;3.20;3.20;;;;;;;;5020903;28;8898;-77
2021/07/24 10:18:09;;;;;;;;;1.80;1.80;;;;;;;;5019885;28;8888;-77
2021/07/24 10:20:37;;;;;;;;;3.80;3.80;;;;;;;;5018965;28;8868;-75
2021/07/24 10:23:05;;;;;;;;;16.80;15.80;;;;;;;;5020084;28;8884;-77
2021/07/24 10:25:41;;;;;;;;;4.40;3.60;;;;;;;;5020314;28;8853;-74
2021/07/24 10:28:11;;;;;;;;;5.80;5.80;;;;;;;;5023317;28;8856;-73
2021/07/24 10:30:41;;;;;;;;;5.00;4.00;;;;;;;;5006756;28;8829;-78
2021/07/24 10:33:10;;;;;;;;;7.20;6.40;;;;;;;;5021390;28;8916;-77
2021/07/24 10:35:41;;;;;;;;;11.80;11.80;;;;;;;;5022694;28;8881;-78
2021/07/24 10:38:36;;;;;;;;;26.40;23.40;;;;;;;;5034981;28;8872;-80
2021/07/24 10:41:48;;;;;;;;;306.17;293.83;;;;;;;;4987736;28;8882;-76
2021/07/24 10:44:18;;;;;;;;;62.25;47.00;;;;;;;;5019494;28;9040;-76
2021/07/24 10:47:17;;;;;;;;;3.00;3.00;;;;;;;;4986361;28;8901;-76
2021/07/24 10:50:04;;;;;;;;;4.40;4.00;;;;;;;;5010152;28;8885;-75
2021/07/24 10:53:15;;;;;;;;;2.40;1.00;;;;;;;;5020238;28;8845;-77
2021/07/24 10:55:49;;;;;;;;;1.00;1.00;;;;;;;;5021992;28;8865;-75
2021/07/24 10:58:18;;;;;;;;;3.20;3.20;;;;;;;;5022943;28;8873;-77
2021/07/24 11:00:51;;;;;;;;;2.00;2.00;;;;;;;;5024002;28;8809;-77
2021/07/24 11:03:40;;;;;;;;;2.00;2.00;;;;;;;;5024831;28;8905;-80
2021/07/24 11:06:25;;;;;;;;;3.00;3.00;;;;;;;;5024273;28;8885;-79
2021/07/24 11:09:09;;;;;;;;;2.60;2.60;;;;;;;;5008830;28;8877;-80
2021/07/24 11:11:38;;;;;;;;;2.60;2.60;;;;;;;;5025121;28;8875;-82
2021/07/24 11:14:05;;;;;;;;;2.60;2.00;;;;;;;;5024855;28;9637;-80
2021/07/24 11:17:15;;;;;;;;;3.20;2.00;;;;;;;;5023540;28;8874;-84
2021/07/24 11:19:45;;;;;;;;;3.00;3.00;;;;;;;;5024074;28;8881;-88
2021/07/24 11:22:14;;;;;;;;;1.20;1.20;;;;;;;;5026422;28;9667;-79
2021/07/24 11:24:43;;;;;;;;;2.00;2.00;;;;;;;;5023850;28;8873;-84
2021/07/24 11:27:12;;;;;;;;;3.00;3.00;;;;;;;;5025224;28;8891;-83
2021/07/24 11:29:39;;;;;;;;;2.60;2.60;;;;;;;;5025378;28;8865;-84
2021/07/24 11:32:07;;;;;;;;;0.00;0.00;;;;;;;;5025391;28;8809;-80
2021/07/24 11:34:36;;;;;;;;;2.00;2.00;;;;;;;;5024758;28;9611;-81
2021/07/24 11:37:05;;;;;;;;;2.20;2.20;;;;;;;;5024398;28;8866;-80
2021/07/24 11:39:33;;;;;;;;;1.80;1.80;;;;;;;;5026294;28;8914;-82
2021/07/24 11:42:01;;;;;;;;;4.20;2.40;;;;;;;;5007736;28;10083;-81
2021/07/24 11:44:29;;;;;;;;;3.40;3.40;;;;;;;;5025855;28;8892;-79
2021/07/24 11:46:58;;;;;;;;;3.00;3.00;;;;;;;;5021706;28;8904;-87
2021/07/24 11:49:26;;;;;;;;;2.00;2.00;;;;;;;;5025334;28;8853;-83
2021/07/24 11:51:53;;;;;;;;;3.00;1.40;;;;;;;;5026090;28;8880;-85
2021/07/24 11:54:37;;;;;;;;;4.20;3.00;;;;;;;;5028241;28;8869;-85
2021/07/24 11:57:06;;;;;;;;;1.00;1.00;;;;;;;;5022527;28;8894;-83
2021/07/24 11:59:36;;;;;;;;;0.00;0.00;;;;;;;;5021124;28;8893;-82
2021/07/24 12:02:04;;;;;;;;;0.20;0.20;;;;;;;;5031829;28;8827;-88
2021/07/24 12:04:31;;;;;;;;;2.00;2.00;;;;;;;;5022639;28;8872;-84
2021/07/24 12:07:01;;;;;;;;;2.00;2.00;;;;;;;;5026158;28;8986;-83
2021/07/24 12:09:29;;;;;;;;;2.00;2.00;;;;;;;;5025945;28;8853;-80
2021/07/24 12:12:00;;;;;;;;;1.80;1.80;;;;;;;;5030179;28;9039;-92
2021/07/24 12:14:28;;;;;;;;;2.00;2.00;;;;;;;;5031234;28;8844;-85
2021/07/24 12:17:07;;;;;;;;;2.40;2.40;;;;;;;;5008461;28;8903;-82
2021/07/24 12:19:39;;;;;;;;;2.00;2.00;;;;;;;;5026126;28;9627;-86
2021/07/24 12:22:14;;;;;;;;;2.80;2.80;;;;;;;;5023938;28;8920;-79
2021/07/24 12:24:42;;;;;;;;;3.40;2.40;;;;;;;;5024748;28;8880;-84
2021/07/24 12:27:12;;;;;;;;;1.40;1.40;;;;;;;;5024359;28;8868;-79
2021/07/24 12:29:53;;;;;;;;;3.00;1.40;;;;;;;;5006323;28;8861;-83
2021/07/24 12:32:22;;;;;;;;;2.60;2.60;;;;;;;;5028446;28;10217;-77
2021/07/24 12:34:49;;;;;;;;;5.00;2.00;;;;;;;;5034827;28;8882;-78
2021/07/24 12:37:30;;;;;;;;;1.60;1.60;;;;;;;;5025357;28;8971;-78
2021/07/24 12:39:58;;;;;;;;;2.00;2.00;;;;;;;;5034501;28;8969;-78
2021/07/24 12:42:34;;;;;;;;;1.80;1.80;;;;;;;;5045005;28;8875;-78
2021/07/24 12:45:02;;;;;;;;;3.20;2.20;;;;;;;;5024775;28;8849;-77
2021/07/24 12:47:37;;;;;;;;;2.00;2.00;;;;;;;;5030215;28;8894;-78
2021/07/24 12:50:15;;;;;;;;;1.60;1.60;;;;;;;;5023123;28;8852;-77
2021/07/24 12:52:47;;;;;;;;;2.00;2.00;;;;;;;;5021700;28;9028;-78
2021/07/24 12:55:17;;;;;;;;;2.00;2.00;;;;;;;;5025080;28;8877;-78
2021/07/24 12:57:46;;;;;;;;;1.20;1.00;;;;;;;;5022765;28;8892;-78
2021/07/24 13:00:15;;;;;;;;;4.20;2.00;;;;;;;;5025997;28;8873;-78
2021/07/24 13:02:43;;;;;;;;;1.00;1.00;;;;;;;;5023935;28;8888;-78
2021/07/24 13:05:12;;;;;;;;;1.00;1.00;;;;;;;;5024855;28;8917;-79
2021/07/24 13:07:41;;;;;;;;;1.20;1.20;;;;;;;;5014354;28;8865;-79
2021/07/24 13:10:11;;;;;;;;;3.20;3.20;;;;;;;;5021558;28;8882;-79
2021/07/24 13:12:38;;;;;;;;;2.60;2.40;;;;;;;;5022405;28;9277;-80
2021/07/24 13:15:10;;;;;;;;;3.00;3.00;;;;;;;;5004341;28;8938;-80
2021/07/24 13:17:37;;;;;;;;;0.00;0.00;;;;;;;;5005015;28;8867;-79
2021/07/24 13:20:07;;;;;;;;;0.00;0.00;;;;;;;;5027634;28;8854;-79
2021/07/24 13:22:34;;;;;;;;;2.60;2.60;;;;;;;;5025021;28;8910;-79
2021/07/24 13:25:06;;;;;;;;;2.40;2.40;;;;;;;;5021758;28;8872;-80
2021/07/24 13:30:20;;;;;;;;;2.80;1.40;;;;;;;;5022020;28;9623;-79
2021/07/24 13:32:48;;;;;;;;;1.80;1.80;;;;;;;;5024425;28;9763;-78
2021/07/24 13:35:16;;;;;;;;;1.80;1.80;;;;;;;;5028288;28;9014;-78
2021/07/24 13:37:43;;;;;;;;;2.40;2.40;;;;;;;;5026160;28;8869;-79
2021/07/24 13:40:12;;;;;;;;;2.60;2.60;;;;;;;;5020297;28;8872;-82
2021/07/24 13:42:39;;;;;;;;;2.00;2.00;;;;;;;;5031978;28;8874;-84
2021/07/24 13:45:08;;;;;;;;;2.00;2.00;;;;;;;;5019938;28;8899;-79
2021/07/24 13:47:36;;;;;;;;;3.00;3.00;;;;;;;;5028503;28;8908;-79
2021/07/24 13:50:07;;;;;;;;;1.00;1.00;;;;;;;;5028040;28;8876;-78
2021/07/24 13:52:35;;;;;;;;;1.60;1.60;;;;;;;;5027957;28;8877;-84
2021/07/24 13:55:04;;;;;;;;;3.40;2.20;;;;;;;;5022118;28;8907;-81
2021/07/24 13:57:31;;;;;;;;;2.00;0.40;;;;;;;;5019305;28;8872;-80
2021/07/24 14:00:01;;;;;;;;;2.00;2.00;;;;;;;;5022345;28;8869;-83
2021/07/24 14:02:28;;;;;;;;;1.00;1.00;;;;;;;;5022221;28;8855;-82
2021/07/24 14:04:57;;;;;;;;;3.00;2.20;;;;;;;;5021926;28;8872;-84
2021/07/24 14:07:24;;;;;;;;;1.20;1.20;;;;;;;;5004415;28;8871;-86
2021/07/24 14:09:51;;;;;;;;;3.00;1.00;;;;;;;;5004032;28;8881;-85
2021/07/24 14:12:21;;;;;;;;;3.00;3.00;;;;;;;;5020662;28;8857;-86
2021/07/24 14:14:48;;;;;;;;;1.00;1.00;;;;;;;;5018838;28;8994;-85
2021/07/24 14:17:16;;;;;;;;;2.40;2.20;;;;;;;;4986708;28;8863;-86
2021/07/24 14:19:43;;;;;;;;;1.00;1.00;;;;;;;;5021448;28;8903;-85
2021/07/24 14:22:12;;;;;;;;;1.00;1.00;;;;;;;;5018949;28;8910;-85
2021/07/24 14:24:39;;;;;;;;;1.00;1.00;;;;;;;;5005942;28;8868;-84
2021/07/24 14:27:06;;;;;;;;;1.40;1.40;;;;;;;;5018130;28;8989;-84
2021/07/24 14:29:34;;;;;;;;;1.60;1.60;;;;;;;;5003305;28;8856;-85
2021/07/24 14:32:01;;;;;;;;;1.40;1.40;;;;;;;;5020446;28;8828;-84
2021/07/24 14:34:28;;;;;;;;;1.00;0.60;;;;;;;;5023321;28;8921;-83
2021/07/24 14:36:56;;;;;;;;;1.60;1.60;;;;;;;;5022090;28;8889;-85
2021/07/24 14:39:24;;;;;;;;;1.20;1.20;;;;;;;;5021843;28;8873;-85
2021/07/24 14:41:52;;;;;;;;;3.80;2.00;;;;;;;;5026223;28;8954;-84
2021/07/24 14:44:20;;;;;;;;;1.80;1.00;;;;;;;;5023737;28;8893;-86
2021/07/24 14:46:47;;;;;;;;;1.00;1.00;;;;;;;;5021830;28;8880;-89
2021/07/24 14:49:15;;;;;;;;;3.00;1.40;;;;;;;;5003976;28;8872;-85
2021/07/24 14:51:42;;;;;;;;;4.80;2.40;;;;;;;;5038583;28;8894;-84
2021/07/24 14:54:09;;;;;;;;;2.00;2.00;;;;;;;;5028205;28;9631;-87
2021/07/24 14:56:38;;;;;;;;;3.40;2.20;;;;;;;;5032197;28;8883;-86
2021/07/24 14:59:05;;;;;;;;;2.40;2.40;;;;;;;;5027002;28;8870;-87
2021/07/24 15:01:33;;;;;;;;;2.40;2.40;;;;;;;;4990112;28;8825;-87
2021/07/24 15:04:02;;;;;;;;;2.00;2.00;;;;;;;;5021256;28;8869;-83